Archival Weather

Republic

Farmingdale, New York (KFRG)

Report from: Saturday, February 17, 2024 4:53 PM EST
Current time: Friday, June 21, 2024 8:03 PM EDT

Current weather – Weather history – Daily summaries
Weather forecast

Temperature1.7°C (35.1°F)
Wind chill-3.1°C (26.4°F)
Dew point-10.6°C (12.9°F)
Winds 11 kts (5.7 m/s, 12.7 mph) West-Northwest (300°)
Wind gusts 16 kts (8.2 m/s, 18.4 mph)
Visibility10 mi. (16.1 km)
Clouds Sky clear
Altimeter29.76 in.Hg (1008 mB)
Relative humidity40 %
Density altitude-1,388 ft. (-423 m)
Sea-level pressure100.8 kPa (1008 mB, 29.76 in.Hg)
Remarks Automated weather observing station without precipitation discriminator
Flight conditions Visual Meteorological Conditions
Raw dataKFRG 172153Z 30011G16KT 10SM CLR 02/M11 A2976 RMK AO1 SLP079 T00171106
An error has occurred. This application may no longer respond until reloaded. Reload 🗙